Time;durP1;ratioP1;P1;durP2;ratioP2;P2;SDS_P1;SDS_P2;PMS_P1;PMS_P2;Temp;Humidity;BMP_temperature;BMP_pressure;BME280_temperature;BME280_humidity;BME280_pressure;Samples;Min_cycle;Max_cycle;Signal;HPM_P1;HPM_P2
2023/12/10 00:01:15;;;;;;;2.07;1.23;;;7.60;99.90;;;;;;5039682;28;20255;-75
2023/12/10 00:03:43;;;;;;;1.05;0.95;;;7.60;99.90;;;;;;5045943;28;20760;-75
2023/12/10 00:06:10;;;;;;;2.73;1.30;;;7.60;99.90;;;;;;5038931;28;20618;-75
2023/12/10 00:08:37;;;;;;;1.07;0.97;;;7.60;99.90;;;;;;5045359;28;21094;-75
2023/12/10 00:11:04;;;;;;;14.30;1.20;;;7.50;99.90;;;;;;5046061;28;20654;-75
2023/12/10 00:13:31;;;;;;;4.57;1.20;;;7.50;99.90;;;;;;5046099;28;20673;-75
2023/12/10 00:15:58;;;;;;;12.75;1.80;;;7.50;99.90;;;;;;5042701;28;21179;-75
2023/12/10 00:18:25;;;;;;;2.65;1.70;;;7.50;99.90;;;;;;5046335;28;20246;-75
2023/12/10 00:20:53;;;;;;;1.88;1.40;;;7.50;99.90;;;;;;5045186;28;20861;-75
2023/12/10 00:23:20;;;;;;;2.55;2.35;;;7.40;99.90;;;;;;5046226;28;20643;-75
2023/12/10 00:25:48;;;;;;;0.98;0.93;;;7.40;99.90;;;;;;5044256;28;20200;-75
2023/12/10 00:28:15;;;;;;;3.75;0.80;;;7.50;99.90;;;;;;5046366;28;20554;-75
2023/12/10 00:30:42;;;;;;;2.33;1.50;;;7.50;99.90;;;;;;5044683;28;20199;-75
2023/12/10 00:33:09;;;;;;;6.60;1.45;;;7.50;99.90;;;;;;5042597;28;20290;-76
2023/12/10 00:35:36;;;;;;;4.80;1.80;;;7.50;99.90;;;;;;5040464;28;20284;-74
2023/12/10 00:38:04;;;;;;;2.50;1.60;;;7.40;99.90;;;;;;5040055;28;20647;-75
2023/12/10 00:40:31;;;;;;;2.88;1.77;;;7.50;99.90;;;;;;5043641;28;20701;-74
2023/12/10 00:42:58;;;;;;;3.90;2.93;;;7.40;99.90;;;;;;5038688;28;20279;-74
2023/12/10 00:45:25;;;;;;;2.70;1.37;;;7.40;99.90;;;;;;5036841;28;20627;-74
2023/12/10 00:47:52;;;;;;;3.27;1.33;;;7.40;99.90;;;;;;5040774;28;20677;-74
2023/12/10 00:50:19;;;;;;;3.58;1.73;;;7.40;99.90;;;;;;5032846;28;20659;-74
2023/12/10 00:52:46;;;;;;;5.00;2.27;;;7.40;99.90;;;;;;5032376;28;20689;-75
2023/12/10 00:55:15;;;;;;;2.77;2.10;;;7.40;99.90;;;;;;5049925;28;20717;-74
2023/12/10 00:57:41;;;;;;;2.90;1.48;;;7.30;99.90;;;;;;5040625;28;20623;-74
2023/12/10 01:00:09;;;;;;;4.77;2.20;;;7.30;99.90;;;;;;5043524;28;20302;-74
2023/12/10 01:02:36;;;;;;;2.40;1.90;;;7.40;99.90;;;;;;5036834;28;20673;-74
2023/12/10 01:05:04;;;;;;;1.55;1.45;;;7.40;99.90;;;;;;5038983;28;21049;-74
2023/12/10 01:07:30;;;;;;;6.30;1.93;;;7.50;99.90;;;;;;5047027;28;20204;-74
2023/12/10 01:09:57;;;;;;;3.83;1.55;;;7.50;99.90;;;;;;5043721;28;20658;-74
2023/12/10 01:12:26;;;;;;;6.87;2.43;;;7.60;99.90;;;;;;5041146;28;20236;-74
2023/12/10 01:14:53;;;;;;;2.53;1.13;;;7.60;99.90;;;;;;5043648;28;20641;-75
2023/12/10 01:17:19;;;;;;;4.03;1.47;;;7.50;99.90;;;;;;5045305;28;20687;-75
2023/12/10 01:19:47;;;;;;;5.20;2.90;;;7.50;99.90;;;;;;5041637;28;20708;-75
2023/12/10 01:22:14;;;;;;;5.03;1.87;;;7.50;99.90;;;;;;5043608;28;20299;-75
2023/12/10 01:24:41;;;;;;;3.60;2.17;;;7.50;99.90;;;;;;5042979;28;20738;-75
2023/12/10 01:27:09;;;;;;;9.30;2.60;;;7.50;99.90;;;;;;5046987;28;20729;-75
2023/12/10 01:29:37;;;;;;;10.37;2.53;;;7.50;99.90;;;;;;5042777;28;20631;-74
2023/12/10 01:32:04;;;;;;;7.03;4.03;;;7.40;99.90;;;;;;5048917;28;20685;-74
2023/12/10 01:34:31;;;;;;;10.03;2.60;;;7.40;99.90;;;;;;5042719;28;20723;-74
2023/12/10 01:36:58;;;;;;;11.63;2.30;;;7.50;99.90;;;;;;5041465;28;20731;-74
2023/12/10 01:39:25;;;;;;;5.13;2.03;;;7.50;99.90;;;;;;5047097;28;21075;-74
2023/12/10 01:41:52;;;;;;;15.73;3.10;;;7.50;99.90;;;;;;5040469;28;20228;-75
2023/12/10 01:44:19;;;;;;;6.53;2.33;;;7.50;99.90;;;;;;5043746;28;20762;-74
2023/12/10 01:46:47;;;;;;;7.37;2.33;;;7.60;99.90;;;;;;5042755;28;20769;-74
2023/12/10 01:49:15;;;;;;;5.23;1.70;;;7.60;99.90;;;;;;5044157;28;20700;-75
2023/12/10 01:51:44;;;;;;;5.03;2.30;;;7.60;99.90;;;;;;5043143;28;20658;-74
2023/12/10 01:54:21;;;;;;;4.67;2.37;;;7.60;99.90;;;;;;5043140;28;20710;-74
2023/12/10 01:56:48;;;;;;;5.47;1.42;;;7.60;99.90;;;;;;5044601;28;20777;-74
2023/12/10 01:59:15;;;;;;;4.17;1.67;;;7.60;99.90;;;;;;5048388;28;20493;-75
2023/12/10 02:01:42;;;;;;;6.87;3.00;;;7.60;99.90;;;;;;5048123;28;20666;-75
2023/12/10 02:04:11;;;;;;;4.93;1.57;;;7.60;99.90;;;;;;5037471;28;21270;-74
2023/12/10 02:06:39;;;;;;;3.43;1.53;;;7.60;99.90;;;;;;5045339;28;20711;-74
2023/12/10 02:09:10;;;;;;;2.33;2.13;;;7.60;99.90;;;;;;5039227;28;20637;-75
2023/12/10 02:11:38;;;;;;;4.30;2.67;;;7.60;99.90;;;;;;5047720;28;20666;-75
2023/12/10 02:14:07;;;;;;;6.13;2.40;;;7.60;99.90;;;;;;5048447;28;20736;-74
2023/12/10 02:16:34;;;;;;;11.17;2.07;;;7.50;99.90;;;;;;5045753;28;20730;-75
2023/12/10 02:19:01;;;;;;;4.40;1.73;;;7.50;99.90;;;;;;5047742;28;20952;-74
2023/12/10 02:21:32;;;;;;;3.67;1.87;;;7.50;99.90;;;;;;5044177;28;21077;-74
2023/12/10 02:24:02;;;;;;;4.37;1.90;;;7.60;99.90;;;;;;5043089;28;21269;-75
2023/12/10 02:26:32;;;;;;;4.67;2.10;;;7.60;99.90;;;;;;5042126;28;20653;-74
2023/12/10 02:28:59;;;;;;;3.27;1.53;;;7.60;99.90;;;;;;5045965;28;20985;-75
2023/12/10 02:31:27;;;;;;;2.20;1.43;;;7.70;99.90;;;;;;5048151;28;20655;-74
2023/12/10 02:33:56;;;;;;;2.10;1.20;;;7.50;99.90;;;;;;5040491;28;21242;-74
2023/12/10 02:36:24;;;;;;;1.57;1.47;;;7.50;99.90;;;;;;5039047;28;20685;-74
2023/12/10 02:38:52;;;;;;;2.00;1.17;;;7.50;99.90;;;;;;5039191;28;20685;-74
2023/12/10 02:41:20;;;;;;;13.13;1.90;;;7.40;99.90;;;;;;5044012;28;20670;-74
2023/12/10 02:43:49;;;;;;;5.60;2.50;;;7.30;99.90;;;;;;5037537;28;21035;-74
2023/12/10 02:46:17;;;;;;;5.73;2.57;;;7.30;99.90;;;;;;5045770;28;20745;-75
2023/12/10 02:48:43;;;;;;;3.97;3.17;;;7.10;99.90;;;;;;5043351;28;21168;-75
2023/12/10 02:51:10;;;;;;;1.13;0.80;;;7.00;99.90;;;;;;5041563;28;20204;-75
2023/12/10 02:53:37;;;;;;;3.05;1.45;;;6.90;99.90;;;;;;5034059;28;20228;-75
2023/12/10 02:56:05;;;;;;;3.80;1.73;;;6.80;99.90;;;;;;5047583;28;20200;-75
2023/12/10 02:58:32;;;;;;;2.20;1.67;;;6.80;99.90;;;;;;5036717;28;20196;-75
2023/12/10 03:01:00;;;;;;;1.70;0.82;;;6.70;99.90;;;;;;5044077;28;20572;-75
2023/12/10 03:03:27;;;;;;;0.70;0.70;;;6.60;99.90;;;;;;5046940;28;20200;-75
2023/12/10 03:05:54;;;;;;;2.42;1.48;;;6.50;99.90;;;;;;5044263;28;20580;-75
2023/12/10 03:08:22;;;;;;;1.08;0.98;;;6.50;99.90;;;;;;5046647;28;20477;-75
2023/12/10 03:10:50;;;;;;;0.88;0.40;;;6.40;99.90;;;;;;5042071;28;20384;-75
2023/12/10 03:13:18;;;;;;;2.55;1.08;;;6.40;99.90;;;;;;5044262;28;20450;-75
2023/12/10 03:15:46;;;;;;;0.80;0.77;;;6.30;99.90;;;;;;5039979;28;20251;-76
2023/12/10 03:18:15;;;;;;;0.47;0.47;;;6.30;99.90;;;;;;5047676;28;20759;-74
2023/12/10 03:20:42;;;;;;;0.75;0.75;;;6.20;99.90;;;;;;5046386;28;20749;-75
2023/12/10 03:23:10;;;;;;;1.23;0.90;;;6.20;99.90;;;;;;5045540;28;20607;-75
2023/12/10 03:25:38;;;;;;;0.80;0.77;;;6.10;99.90;;;;;;5042690;28;20211;-75
2023/12/10 03:28:05;;;;;;;1.70;0.65;;;6.10;99.90;;;;;;5045771;28;20204;-73
2023/12/10 03:30:32;;;;;;;1.50;1.40;;;6.00;99.90;;;;;;5043619;28;20199;-75
2023/12/10 03:33:00;;;;;;;3.20;0.88;;;6.10;99.90;;;;;;5048015;28;20245;-74
2023/12/10 03:35:30;;;;;;;8.93;1.17;;;6.10;99.90;;;;;;5043807;28;20204;-75
2023/12/10 03:37:57;;;;;;;1.63;1.10;;;6.10;99.90;;;;;;5044044;28;20733;-75
2023/12/10 03:40:26;;;;;;;0.77;0.77;;;6.20;99.90;;;;;;5044783;28;20203;-74
2023/12/10 03:42:53;;;;;;;1.55;0.57;;;6.20;99.90;;;;;;5041268;28;20232;-74
2023/12/10 03:45:19;;;;;;;2.80;1.65;;;6.20;99.90;;;;;;5040244;28;20192;-75
2023/12/10 03:47:47;;;;;;;1.30;0.90;;;6.30;99.90;;;;;;5035920;28;20208;-74
2023/12/10 03:50:14;;;;;;;0.52;0.52;;;6.30;99.90;;;;;;5041236;28;20202;-75
2023/12/10 03:52:42;;;;;;;1.48;0.80;;;6.30;99.90;;;;;;5040174;28;20201;-75
2023/12/10 03:55:10;;;;;;;4.97;0.95;;;6.30;99.90;;;;;;5048256;28;20287;-74
2023/12/10 03:57:36;;;;;;;1.20;0.85;;;6.30;99.90;;;;;;5044007;28;20292;-75
2023/12/10 04:00:05;;;;;;;0.60;0.60;;;6.30;99.90;;;;;;5033674;28;20255;-74
2023/12/10 04:02:32;;;;;;;2.03;1.02;;;6.30;99.90;;;;;;5042161;28;20224;-74
2023/12/10 04:04:59;;;;;;;3.80;0.98;;;6.30;99.90;;;;;;5042800;28;20224;-75
2023/12/10 04:07:26;;;;;;;3.40;1.35;;;6.40;99.90;;;;;;5041933;28;20199;-74
2023/12/10 04:09:54;;;;;;;3.67;1.33;;;6.30;99.90;;;;;;5040999;28;20219;-75
2023/12/10 04:12:22;;;;;;;1.38;1.17;;;6.40;99.90;;;;;;5046226;28;20208;-74
2023/12/10 04:14:49;;;;;;;1.88;1.73;;;6.40;99.90;;;;;;5037278;28;20223;-75
2023/12/10 04:17:16;;;;;;;2.80;1.10;;;6.40;99.90;;;;;;5036247;28;20602;-76
2023/12/10 04:19:43;;;;;;;2.13;1.42;;;6.40;99.90;;;;;;5036719;28;20609;-76
2023/12/10 04:22:10;;;;;;;5.38;1.77;;;6.40;99.90;;;;;;5029362;28;20768;-75
2023/12/10 04:24:37;;;;;;;2.53;1.83;;;6.40;99.90;;;;;;5030149;28;20280;-76
2023/12/10 04:27:05;;;;;;;4.03;1.65;;;6.40;99.90;;;;;;5045459;28;20255;-75
2023/12/10 04:29:32;;;;;;;1.00;0.88;;;6.40;99.90;;;;;;5041956;28;20632;-75
2023/12/10 04:31:59;;;;;;;2.83;0.90;;;6.50;99.90;;;;;;5046592;28;20670;-75
2023/12/10 04:34:26;;;;;;;2.58;0.77;;;6.50;99.90;;;;;;5039368;28;20207;-75
2023/12/10 04:36:52;;;;;;;1.17;1.08;;;6.50;99.90;;;;;;5040476;28;20199;-75
2023/12/10 04:39:19;;;;;;;1.95;1.20;;;6.50;99.90;;;;;;5043098;28;20306;-75
2023/12/10 04:41:46;;;;;;;1.65;0.80;;;6.50;99.90;;;;;;5041924;28;20220;-75
2023/12/10 04:44:14;;;;;;;1.20;0.95;;;6.50;99.90;;;;;;5045820;28;20283;-75
2023/12/10 04:46:41;;;;;;;12.07;1.40;;;6.50;99.90;;;;;;5041355;28;20303;-75
2023/12/10 04:49:08;;;;;;;2.97;0.93;;;6.50;99.90;;;;;;5042263;28;20290;-75
2023/12/10 04:51:35;;;;;;;0.80;0.70;;;6.70;99.90;;;;;;5042662;28;20243;-75
2023/12/10 04:54:02;;;;;;;2.58;1.58;;;6.60;99.90;;;;;;5044612;28;20232;-75
2023/12/10 04:56:30;;;;;;;1.77;1.15;;;6.70;99.90;;;;;;5045182;28;20213;-75
2023/12/10 04:58:57;;;;;;;2.45;1.50;;;6.70;99.90;;;;;;5038788;28;20219;-75
2023/12/10 05:01:25;;;;;;;1.42;1.33;;;6.60;99.90;;;;;;5040638;28;20729;-75
2023/12/10 05:03:52;;;;;;;1.80;1.40;;;6.60;99.90;;;;;;5040711;28;20359;-75
2023/12/10 05:06:19;;;;;;;1.73;1.10;;;6.60;99.90;;;;;;5045284;28;20283;-75
2023/12/10 05:08:46;;;;;;;1.50;1.40;;;6.60;99.90;;;;;;5036829;28;20239;-75
2023/12/10 05:11:13;;;;;;;2.83;1.65;;;6.60;99.90;;;;;;5035508;28;20204;-75
2023/12/10 05:13:39;;;;;;;1.75;0.90;;;6.60;99.90;;;;;;5031892;28;20277;-75
2023/12/10 05:16:07;;;;;;;9.35;3.13;;;6.60;99.90;;;;;;5037626;28;20266;-75
2023/12/10 05:18:35;;;;;;;1.75;1.65;;;6.60;99.90;;;;;;5042212;28;20227;-75
2023/12/10 05:21:02;;;;;;;1.63;1.25;;;6.60;99.90;;;;;;5040186;28;20282;-75
2023/12/10 05:23:29;;;;;;;1.55;0.70;;;6.50;99.90;;;;;;5045059;28;20552;-75
2023/12/10 05:25:56;;;;;;;0.70;0.70;;;6.50;99.90;;;;;;5043144;28;20646;-75
2023/12/10 05:28:22;;;;;;;9.30;1.10;;;6.50;99.90;;;;;;5035018;28;20279;-75
2023/12/10 05:30:49;;;;;;;7.07;1.65;;;6.60;99.90;;;;;;5029370;28;20680;-75
2023/12/10 05:33:16;;;;;;;3.83;1.00;;;6.60;99.90;;;;;;5036655;28;20266;-75
2023/12/10 05:35:45;;;;;;;2.35;1.00;;;6.50;99.90;;;;;;5043875;28;20652;-75
2023/12/10 05:38:11;;;;;;;0.60;0.52;;;6.50;99.90;;;;;;5045774;28;20293;-75
2023/12/10 05:40:38;;;;;;;1.58;1.13;;;6.50;99.90;;;;;;5044892;28;20235;-75
2023/12/10 05:43:05;;;;;;;3.60;1.30;;;6.40;99.90;;;;;;5043027;28;20255;-75
2023/12/10 05:45:32;;;;;;;2.72;1.55;;;6.40;99.90;;;;;;5046243;28;20243;-75
2023/12/10 05:47:59;;;;;;;8.38;1.65;;;6.40;99.90;;;;;;5044365;28;20221;-75
2023/12/10 05:50:26;;;;;;;6.90;1.23;;;6.40;99.90;;;;;;5046371;28;20302;-75
2023/12/10 05:52:54;;;;;;;3.75;1.25;;;6.40;99.90;;;;;;5046135;28;20642;-75
2023/12/10 05:55:21;;;;;;;1.67;1.35;;;6.40;99.90;;;;;;5048904;28;20602;-75
2023/12/10 05:57:48;;;;;;;1.60;0.80;;;6.40;99.90;;;;;;5040477;28;20556;-75
2023/12/10 06:00:16;;;;;;;1.65;1.50;;;6.50;99.90;;;;;;5047246;28;20321;-75
2023/12/10 06:02:44;;;;;;;5.35;1.52;;;6.50;99.90;;;;;;5045109;28;20223;-75
2023/12/10 06:05:10;;;;;;;0.98;0.90;;;6.40;99.90;;;;;;5041285;28;20428;-75
2023/12/10 06:07:37;;;;;;;7.95;1.17;;;6.50;99.90;;;;;;5045698;28;20741;-75
2023/12/10 06:10:07;;;;;;;4.78;1.00;;;6.50;99.90;;;;;;5038723;28;20294;-75
2023/12/10 06:12:34;;;;;;;3.45;0.65;;;6.50;99.90;;;;;;5035998;28;20204;-75
2023/12/10 06:15:00;;;;;;;3.08;1.15;;;6.50;99.90;;;;;;5039878;28;20200;-75
2023/12/10 06:17:27;;;;;;;3.33;1.00;;;6.60;99.90;;;;;;5038998;28;20298;-74
2023/12/10 06:19:54;;;;;;;2.13;0.65;;;6.60;99.90;;;;;;5046145;28;20227;-75
2023/12/10 06:22:21;;;;;;;5.13;1.95;;;6.50;99.90;;;;;;5037694;28;20244;-75
2023/12/10 06:24:48;;;;;;;1.48;0.77;;;6.50;99.90;;;;;;5038235;28;20227;-75
2023/12/10 06:27:16;;;;;;;3.60;1.05;;;6.50;99.90;;;;;;5028859;28;20258;-75
2023/12/10 06:29:43;;;;;;;9.17;2.20;;;6.40;99.90;;;;;;5045108;28;20279;-75
2023/12/10 06:32:10;;;;;;;7.75;1.38;;;6.40;99.90;;;;;;5041518;28;20708;-75
2023/12/10 06:34:37;;;;;;;2.72;1.15;;;6.40;99.90;;;;;;5044137;28;20385;-75
2023/12/10 06:37:04;;;;;;;3.83;1.15;;;6.30;99.90;;;;;;5041772;28;20696;-75
2023/12/10 06:39:31;;;;;;;4.60;1.80;;;6.30;99.90;;;;;;5046612;28;20760;-75
2023/12/10 06:41:58;;;;;;;2.15;1.10;;;6.30;99.90;;;;;;5041755;28;20315;-75
2023/12/10 06:44:27;;;;;;;4.75;1.05;;;6.30;99.90;;;;;;5046547;28;20309;-75
2023/12/10 06:46:53;;;;;;;7.78;1.25;;;6.30;99.90;;;;;;5041773;28;20225;-74
2023/12/10 06:49:20;;;;;;;1.05;0.82;;;6.30;99.90;;;;;;5045696;28;20299;-75
2023/12/10 06:51:47;;;;;;;1.45;0.80;;;6.30;99.90;;;;;;5039128;28;20569;-75
2023/12/10 06:54:14;;;;;;;3.63;1.02;;;6.20;99.90;;;;;;5048761;28;20661;-74
2023/12/10 06:56:41;;;;;;;1.25;0.85;;;6.30;99.90;;;;;;5041877;28;20254;-74
2023/12/10 06:59:08;;;;;;;5.40;1.63;;;6.40;99.90;;;;;;5039206;28;20247;-74
2023/12/10 07:01:38;;;;;;;3.90;1.77;;;6.40;99.90;;;;;;5044447;28;20200;-77
2023/12/10 07:04:05;;;;;;;2.53;2.33;;;6.40;99.90;;;;;;5038298;28;20591;-78
2023/12/10 07:06:32;;;;;;;6.00;2.88;;;6.40;99.90;;;;;;5035108;28;20219;-77
2023/12/10 07:08:59;;;;;;;3.57;1.50;;;6.40;99.90;;;;;;5029086;28;20236;-77
2023/12/10 07:11:26;;;;;;;1.33;1.20;;;6.40;99.90;;;;;;5039984;28;20677;-77
2023/12/10 07:13:53;;;;;;;1.08;0.85;;;6.40;99.90;;;;;;5033774;28;20694;-76
2023/12/10 07:16:21;;;;;;;6.18;1.83;;;6.40;99.90;;;;;;5029759;28;20211;-76
2023/12/10 07:18:49;;;;;;;2.67;1.25;;;6.50;99.90;;;;;;5033384;28;20200;-76
2023/12/10 07:21:16;;;;;;;2.00;1.00;;;6.50;99.90;;;;;;5037789;28;20200;-76
2023/12/10 07:23:43;;;;;;;1.35;1.00;;;6.50;99.90;;;;;;5037618;28;20636;-76
2023/12/10 07:26:10;;;;;;;1.63;0.80;;;6.50;99.90;;;;;;5035424;28;20204;-75
2023/12/10 07:28:37;;;;;;;0.63;0.63;;;6.50;99.90;;;;;;5036325;28;20916;-76
2023/12/10 07:31:04;;;;;;;0.90;0.90;;;6.50;99.90;;;;;;5046260;28;20713;-75
2023/12/10 07:33:31;;;;;;;1.90;1.00;;;6.50;99.90;;;;;;5040654;28;20741;-72
2023/12/10 07:35:59;;;;;;;1.02;0.50;;;6.50;99.90;;;;;;5042353;28;21092;-73
2023/12/10 07:38:26;;;;;;;3.13;0.70;;;6.50;99.90;;;;;;5041992;28;20293;-75
2023/12/10 07:40:53;;;;;;;1.83;1.08;;;6.40;99.90;;;;;;5043741;28;20275;-76
2023/12/10 07:43:20;;;;;;;2.80;1.00;;;6.40;99.90;;;;;;5040406;28;20320;-77
2023/12/10 07:45:57;;;;;;;3.50;1.05;;;6.40;99.90;;;;;;5040140;28;20227;-82
2023/12/10 07:48:24;;;;;;;6.80;1.13;;;;;;;;;;5038778;28;20243;-84
2023/12/10 07:50:51;;;;;;;1.20;0.95;;;6.50;99.90;;;;;;5042493;28;20419;-83
2023/12/10 07:53:19;;;;;;;1.10;1.05;;;6.60;99.90;;;;;;5044505;28;20304;-83
2023/12/10 07:55:46;;;;;;;1.10;0.77;;;6.60;99.90;;;;;;5040496;28;20632;-83
2023/12/10 07:58:13;;;;;;;3.70;0.60;;;6.60;99.90;;;;;;5041170;28;20607;-86
2023/12/10 08:00:40;;;;;;;1.13;0.67;;;6.60;99.90;;;;;;5044290;28;20228;-80
2023/12/10 08:03:10;;;;;;;1.60;1.30;;;6.60;99.90;;;;;;5046109;28;20763;-84
2023/12/10 08:05:40;;;;;;;1.75;1.13;;;6.60;99.90;;;;;;5043395;28;20204;-79
2023/12/10 08:08:07;;;;;;;2.28;0.70;;;6.70;99.90;;;;;;5038585;28;20244;-79
2023/12/10 08:10:36;;;;;;;2.00;1.60;;;6.70;99.90;;;;;;5039076;28;20219;-81
2023/12/10 08:13:03;;;;;;;2.15;1.10;;;6.70;99.90;;;;;;5039276;28;20628;-77
2023/12/10 08:15:30;;;;;;;1.50;1.10;;;6.60;99.90;;;;;;5043366;28;20564;-77
2023/12/10 08:17:57;;;;;;;1.90;1.10;;;6.70;99.90;;;;;;5040760;28;20487;-81
2023/12/10 08:20:24;;;;;;;5.72;1.52;;;6.70;99.90;;;;;;5044920;28;20618;-80
2023/12/10 08:22:50;;;;;;;3.60;1.10;;;6.60;99.90;;;;;;5039748;28;20208;-79
2023/12/10 08:25:17;;;;;;;6.13;1.67;;;6.70;99.90;;;;;;5036813;28;20231;-77
2023/12/10 08:27:46;;;;;;;1.63;0.93;;;6.80;99.90;;;;;;5035681;28;20942;-75
2023/12/10 08:30:14;;;;;;;2.77;1.40;;;6.80;99.90;;;;;;5042552;28;20966;-75
2023/12/10 08:32:41;;;;;;;9.70;6.97;;;6.80;99.90;;;;;;5044379;28;20637;-76
2023/12/10 08:35:10;;;;;;;2.13;1.92;;;6.90;99.90;;;;;;5044915;28;20627;-76
2023/12/10 08:37:38;;;;;;;1.40;1.07;;;7.30;99.90;;;;;;5044434;28;20199;-77
2023/12/10 08:40:07;;;;;;;0.80;0.67;;;7.00;99.90;;;;;;5041615;28;21080;-75
2023/12/10 08:42:33;;;;;;;2.10;1.10;;;7.00;99.90;;;;;;5035838;28;20698;-75
2023/12/10 08:45:02;;;;;;;2.73;1.37;;;7.00;99.90;;;;;;5036852;28;20714;-74
2023/12/10 08:47:31;;;;;;;6.80;1.50;;;7.00;99.90;;;;;;5045039;28;20639;-77
2023/12/10 08:49:59;;;;;;;0.80;0.70;;;7.00;99.90;;;;;;5049372;28;21228;-78
2023/12/10 08:52:26;;;;;;;0.77;0.77;;;7.00;99.90;;;;;;5053835;28;20599;-77
2023/12/10 08:54:53;;;;;;;1.40;0.97;;;7.00;99.90;;;;;;5045166;28;20204;-80
2023/12/10 08:57:22;;;;;;;2.78;1.08;;;7.10;99.90;;;;;;5050278;28;20722;-80
2023/12/10 08:59:48;;;;;;;1.30;0.60;;;7.00;99.90;;;;;;5054439;28;20498;-83
2023/12/10 09:02:17;;;;;;;1.10;1.00;;;7.00;99.90;;;;;;5048771;28;20290;-80
2023/12/10 09:04:44;;;;;;;3.17;1.47;;;7.10;99.90;;;;;;5050851;28;20623;-80
2023/12/10 09:07:11;;;;;;;1.73;0.60;;;7.10;99.90;;;;;;5050281;28;20634;-80
2023/12/10 09:09:37;;;;;;;1.15;1.00;;;7.20;99.90;;;;;;5055930;28;20673;-80
2023/12/10 09:12:05;;;;;;;3.80;0.60;;;7.30;99.90;;;;;;5051410;28;20249;-80
2023/12/10 09:14:32;;;;;;;2.45;0.90;;;7.40;99.90;;;;;;5050735;28;20206;-80
2023/12/10 09:16:59;;;;;;;2.35;1.27;;;7.40;99.90;;;;;;5056349;28;20214;-80
2023/12/10 09:19:29;;;;;;;1.40;1.20;;;7.50;99.90;;;;;;5054023;28;20664;-80
2023/12/10 09:21:56;;;;;;;0.67;0.67;;;7.50;99.90;;;;;;5055102;28;20626;-80
2023/12/10 09:24:23;;;;;;;5.23;1.10;;;7.50;99.90;;;;;;5057226;28;20764;-80
2023/12/10 09:26:50;;;;;;;3.00;2.30;;;7.60;99.90;;;;;;5048502;28;20631;-81
2023/12/10 09:29:17;;;;;;;8.43;0.80;;;7.70;99.90;;;;;;5044615;28;20646;-80
2023/12/10 09:31:44;;;;;;;2.70;1.00;;;7.70;99.90;;;;;;5046975;28;20687;-80
2023/12/10 09:34:11;;;;;;;1.47;1.30;;;7.80;99.90;;;;;;5037387;28;21233;-80
2023/12/10 09:36:39;;;;;;;2.17;1.10;;;7.80;99.90;;;;;;5047714;28;20733;-80
2023/12/10 09:39:07;;;;;;;0.50;0.50;;;7.80;99.90;;;;;;5044932;28;21034;-79
2023/12/10 09:41:33;;;;;;;1.67;1.07;;;7.80;99.90;;;;;;5047332;28;20630;-79
2023/12/10 09:44:00;;;;;;;1.50;0.93;;;7.70;99.90;;;;;;5045712;28;20669;-80
2023/12/10 09:46:31;;;;;;;2.40;1.40;;;7.80;99.90;;;;;;5046049;28;20681;-79
2023/12/10 09:49:00;;;;;;;7.23;1.20;;;7.90;99.90;;;;;;5040818;28;20634;-79
2023/12/10 09:51:27;;;;;;;2.00;1.17;;;7.80;99.90;;;;;;5045336;28;20947;-79
2023/12/10 09:53:55;;;;;;;4.57;1.03;;;7.90;99.90;;;;;;5043308;28;20689;-79
2023/12/10 09:56:22;;;;;;;0.60;0.50;;;7.70;99.90;;;;;;5040748;28;20659;-80
2023/12/10 09:58:49;;;;;;;1.90;1.40;;;7.60;99.90;;;;;;5046941;28;20725;-80
2023/12/10 10:01:16;;;;;;;1.20;0.75;;;7.50;99.90;;;;;;5048028;28;20722;-80
2023/12/10 10:03:43;;;;;;;2.40;0.90;;;7.50;99.90;;;;;;5038958;28;20259;-81
2023/12/10 10:06:10;;;;;;;2.10;1.20;;;7.60;99.90;;;;;;5034885;28;20689;-80
2023/12/10 10:08:37;;;;;;;3.33;1.20;;;7.70;99.90;;;;;;5040459;28;20714;-80
2023/12/10 10:11:05;;;;;;;5.23;1.43;;;7.80;99.90;;;;;;5036099;28;20708;-80
2023/12/10 10:13:32;;;;;;;4.23;1.03;;;7.70;99.90;;;;;;5043190;28;20646;-79
2023/12/10 10:16:09;;;;;;;5.90;1.10;;;7.70;99.90;;;;;;5039179;28;20635;-80
2023/12/10 10:18:39;;;;;;;2.37;0.83;;;7.80;99.90;;;;;;5040300;28;20692;-80
2023/12/10 10:21:07;;;;;;;0.40;0.37;;;8.00;99.90;;;;;;5037662;28;20631;-79
2023/12/10 10:23:33;;;;;;;1.30;0.93;;;7.90;99.90;;;;;;5045764;28;20759;-79
2023/12/10 10:26:01;;;;;;;0.83;0.83;;;7.90;99.90;;;;;;5043769;28;20686;-80
2023/12/10 10:28:30;;;;;;;1.83;1.13;;;7.90;99.90;;;;;;5032328;28;20663;-79
2023/12/10 10:30:57;;;;;;;0.93;0.60;;;8.00;99.90;;;;;;5043072;28;20655;-80
2023/12/10 10:33:26;;;;;;;2.80;0.70;;;8.00;99.90;;;;;;5029905;28;20631;-79
2023/12/10 10:35:53;;;;;;;1.03;0.60;;;8.00;99.90;;;;;;5042636;28;21369;-80
2023/12/10 10:38:21;;;;;;;1.27;0.83;;;8.10;99.90;;;;;;5048845;28;20788;-80
2023/12/10 10:40:48;;;;;;;1.03;0.67;;;8.10;99.90;;;;;;5041509;28;20631;-80
2023/12/10 10:43:16;;;;;;;2.17;1.00;;;8.20;99.90;;;;;;5043746;28;20685;-80
2023/12/10 10:45:44;;;;;;;2.10;0.80;;;8.20;99.90;;;;;;5042049;28;20665;-80
2023/12/10 10:48:13;;;;;;;2.10;1.00;;;8.20;99.90;;;;;;5040525;28;20666;-81
2023/12/10 10:50:40;;;;;;;0.50;0.40;;;8.30;99.90;;;;;;5050342;28;21256;-80
2023/12/10 10:53:08;;;;;;;1.60;0.90;;;8.30;99.90;;;;;;5051217;28;21041;-80
2023/12/10 10:55:36;;;;;;;2.67;0.73;;;8.30;99.90;;;;;;5046402;28;21222;-81
2023/12/10 10:58:24;;;;;;;0.60;0.60;;;8.40;99.90;;;;;;5046696;28;20663;-81
2023/12/10 11:00:52;;;;;;;1.20;0.80;;;8.40;99.90;;;;;;5044623;28;20644;-80
2023/12/10 11:03:19;;;;;;;1.37;1.23;;;8.30;99.90;;;;;;5054670;28;20712;-80
2023/12/10 11:05:46;;;;;;;0.80;0.63;;;8.40;99.90;;;;;;5056340;28;20644;-80
2023/12/10 11:08:13;;;;;;;0.60;0.60;;;8.40;99.90;;;;;;5051057;28;20618;-80
2023/12/10 11:10:44;;;;;;;6.23;1.30;;;8.50;99.90;;;;;;5051002;28;20632;-80
2023/12/10 11:13:11;;;;;;;3.13;1.10;;;8.60;99.90;;;;;;5052570;28;20622;-80
2023/12/10 11:15:38;;;;;;;3.27;0.90;;;8.60;99.90;;;;;;5050823;28;20715;-80
2023/12/10 11:18:06;;;;;;;1.13;1.03;;;8.50;99.90;;;;;;5052414;28;20694;-81
2023/12/10 11:20:34;;;;;;;3.27;1.00;;;8.40;99.90;;;;;;5040873;28;20661;-80
2023/12/10 11:23:05;;;;;;;3.40;0.63;;;8.40;99.90;;;;;;5033944;28;20646;-81
2023/12/10 11:25:32;;;;;;;2.60;1.67;;;8.40;99.90;;;;;;5035264;28;21243;-81
2023/12/10 11:28:02;;;;;;;4.50;0.83;;;8.50;99.90;;;;;;5033921;28;20638;-81
2023/12/10 11:30:29;;;;;;;2.00;0.87;;;8.40;99.90;;;;;;5036369;28;20655;-82
2023/12/10 11:32:56;;;;;;;3.47;1.37;;;8.50;99.90;;;;;;5036408;28;21297;-81
2023/12/10 11:35:26;;;;;;;3.13;1.33;;;8.50;99.90;;;;;;5042763;28;20634;-80
2023/12/10 11:37:53;;;;;;;5.50;1.40;;;8.60;99.90;;;;;;5044656;28;20627;-81
2023/12/10 11:40:20;;;;;;;2.70;1.57;;;8.50;99.90;;;;;;5040319;28;21214;-81
2023/12/10 11:42:48;;;;;;;4.63;1.77;;;8.50;99.90;;;;;;5046225;28;20680;-81
2023/12/10 11:45:15;;;;;;;4.47;1.43;;;8.40;99.90;;;;;;5043344;28;20678;-81
2023/12/10 11:47:43;;;;;;;3.13;1.60;;;8.50;99.90;;;;;;5040706;28;21252;-81
2023/12/10 11:50:11;;;;;;;4.83;1.90;;;8.50;99.90;;;;;;5040091;28;21206;-82
2023/12/10 11:52:40;;;;;;;1.90;0.70;;;8.50;99.90;;;;;;5042906;28;20665;-81
2023/12/10 11:55:08;;;;;;;1.70;1.60;;;8.50;99.90;;;;;;5046327;28;20731;-82
2023/12/10 11:57:35;;;;;;;2.57;1.67;;;8.40;99.90;;;;;;5046102;28;20700;-81
2023/12/10 12:00:04;;;;;;;11.60;1.90;;;8.50;99.90;;;;;;5045916;28;20658;-81
2023/12/10 12:02:31;;;;;;;1.73;1.03;;;8.40;99.90;;;;;;5040855;28;20618;-82
2023/12/10 12:04:58;;;;;;;3.80;2.23;;;8.40;99.90;;;;;;5040515;28;20712;-81
2023/12/10 12:07:26;;;;;;;5.90;2.00;;;8.50;99.90;;;;;;5042202;28;21028;-80
2023/12/10 12:09:54;;;;;;;3.43;1.50;;;8.60;99.90;;;;;;5046039;28;20717;-80
2023/12/10 12:12:22;;;;;;;1.37;1.27;;;8.70;99.90;;;;;;5046296;28;20661;-80
2023/12/10 12:14:49;;;;;;;3.33;1.47;;;8.70;99.90;;;;;;5045941;28;20641;-80
2023/12/10 12:17:16;;;;;;;3.03;1.30;;;8.80;99.90;;;;;;5045963;28;20650;-80
2023/12/10 12:19:43;;;;;;;3.30;1.50;;;8.70;99.90;;;;;;5045347;28;20821;-79
2023/12/10 12:22:10;;;;;;;4.63;1.20;;;8.70;99.90;;;;;;5045876;28;21308;-80
2023/12/10 12:24:38;;;;;;;2.87;1.53;;;8.70;99.90;;;;;;5039834;28;20658;-80
2023/12/10 12:27:07;;;;;;;5.60;1.20;;;8.80;99.90;;;;;;5042089;28;20729;-79
2023/12/10 12:29:35;;;;;;;3.83;1.30;;;8.80;99.90;;;;;;5030594;28;20709;-80
2023/12/10 12:32:03;;;;;;;7.93;1.93;;;8.80;99.90;;;;;;5044653;28;20619;-82
2023/12/10 12:34:31;;;;;;;2.73;1.47;;;8.90;99.90;;;;;;5045415;28;21062;-81
2023/12/10 12:36:58;;;;;;;2.60;1.53;;;8.90;99.90;;;;;;5046067;28;20634;-82
2023/12/10 12:39:25;;;;;;;2.20;0.87;;;8.90;99.90;;;;;;5045306;28;21277;-81
2023/12/10 12:42:00;;;;;;;2.80;1.20;;;8.90;99.90;;;;;;5040138;28;20721;-80
2023/12/10 12:44:28;;;;;;;2.00;0.97;;;8.80;99.90;;;;;;5043065;28;20676;-80
2023/12/10 12:46:55;;;;;;;5.23;1.23;;;8.90;99.90;;;;;;5041411;28;20712;-80
2023/12/10 12:49:22;;;;;;;2.00;0.73;;;8.90;99.90;;;;;;5036301;28;20631;-80
2023/12/10 12:51:49;;;;;;;1.33;1.23;;;8.90;99.90;;;;;;5046905;28;20632;-80
2023/12/10 12:54:16;;;;;;;4.27;1.10;;;8.80;99.90;;;;;;5042236;28;20651;-81
2023/12/10 12:56:44;;;;;;;2.83;0.73;;;8.80;99.90;;;;;;5039678;28;21259;-80
2023/12/10 12:59:13;;;;;;;0.80;0.80;;;8.80;99.90;;;;;;5043999;28;20631;-80